Time;durP1;ratioP1;P1;durP2;ratioP2;P2;SDS_P1;SDS_P2;PMS_P1;PMS_P2;Temp;Humidity;BMP_temperature;BMP_pressure;BME280_temperature;BME280_humidity;BME280_pressure;Samples;Min_cycle;Max_cycle;Signal;HPM_P1;HPM_P2
2023/10/14 00:01:55;;;;;;;8.45;1.70;;;14.40;99.90;;;;;;4987519;28;20084;-76
2023/10/14 00:04:25;;;;;;;7.63;1.80;;;14.30;99.90;;;;;;5017967;28;20080;-76
2023/10/14 00:06:51;;;;;;;7.53;1.48;;;14.30;99.90;;;;;;5011058;28;20500;-76
2023/10/14 00:09:17;;;;;;;9.02;1.70;;;14.30;99.90;;;;;;5036766;28;20128;-75
2023/10/14 00:11:56;;;;;;;6.43;1.50;;;14.20;99.90;;;;;;5022511;28;20073;-76
2023/10/14 00:14:23;;;;;;;7.78;1.40;;;14.20;99.90;;;;;;5036363;28;20045;-75
2023/10/14 00:16:52;;;;;;;10.40;2.22;;;14.20;99.90;;;;;;5023208;28;20214;-76
2023/10/14 00:19:19;;;;;;;9.77;1.75;;;14.20;99.90;;;;;;5039742;28;20059;-75
2023/10/14 00:21:48;;;;;;;11.98;1.70;;;14.10;99.90;;;;;;5036580;28;20041;-75
2023/10/14 00:24:27;;;;;;;7.13;1.35;;;14.10;99.90;;;;;;5040673;28;20285;-75
2023/10/14 00:26:54;;;;;;;9.18;1.52;;;14.00;99.90;;;;;;5035696;28;20049;-75
2023/10/14 00:29:24;;;;;;;6.63;1.77;;;14.00;99.90;;;;;;5040084;28;20063;-76
2023/10/14 00:31:51;;;;;;;9.70;1.75;;;13.90;99.90;;;;;;5023570;28;20076;-76
2023/10/14 00:34:22;;;;;;;10.23;1.50;;;13.80;99.90;;;;;;5022281;28;20087;-76
2023/10/14 00:36:49;;;;;;;6.70;1.40;;;13.80;99.90;;;;;;5035163;28;20055;-75
2023/10/14 00:39:23;;;;;;;13.38;2.38;;;13.70;99.90;;;;;;5017801;28;20046;-75
2023/10/14 00:41:50;;;;;;;9.98;1.63;;;13.70;99.90;;;;;;5037822;28;20048;-75
2023/10/14 00:44:17;;;;;;;9.85;1.40;;;13.60;99.90;;;;;;5039627;28;20053;-76
2023/10/14 00:46:50;;;;;;;14.23;2.40;;;13.60;99.90;;;;;;5039858;28;20052;-75
2023/10/14 00:49:31;;;;;;;11.57;2.00;;;13.50;99.90;;;;;;5035174;28;20084;-75
2023/10/14 00:52:05;;;;;;;11.35;2.08;;;13.40;99.90;;;;;;5053066;28;20060;-75
2023/10/14 00:57:09;;;;;;;10.88;1.88;;;13.30;99.90;;;;;;5042197;28;20083;-76
2023/10/14 00:59:34;;;;;;;10.30;1.92;;;13.30;99.90;;;;;;5021422;28;20044;-75
2023/10/14 01:02:02;;;;;;;12.70;2.13;;;13.30;99.90;;;;;;5039665;28;20064;-76
2023/10/14 01:04:34;;;;;;;11.63;1.70;;;13.20;99.90;;;;;;5056562;28;20078;-76
2023/10/14 01:07:12;;;;;;;14.25;2.47;;;13.10;99.90;;;;;;5042490;28;20118;-75
2023/10/14 01:14:54;;;;;;;8.80;2.10;;;13.00;99.90;;;;;;5043066;28;20041;-76
2023/10/14 01:17:30;;;;;;;8.68;2.03;;;13.00;99.90;;;;;;5023483;28;20037;-75
2023/10/14 01:22:57;;;;;;;12.52;2.42;;;12.90;99.90;;;;;;5041564;28;20079;-75
2023/10/14 01:25:29;;;;;;;11.20;2.53;;;12.80;99.90;;;;;;5041028;28;20366;-76
2023/10/14 01:27:59;;;;;;;18.00;2.50;;;12.80;99.90;;;;;;5045905;28;20444;-76
2023/10/14 01:30:32;;;;;;;9.80;2.05;;;12.80;99.90;;;;;;5041310;28;20053;-76
2023/10/14 01:33:16;;;;;;;7.38;2.25;;;12.70;99.90;;;;;;5021732;28;20063;-75
2023/10/14 01:35:45;;;;;;;11.32;1.80;;;12.60;99.90;;;;;;5061966;28;20163;-75
2023/10/14 01:38:13;;;;;;;13.45;2.42;;;12.50;99.90;;;;;;5026425;28;20044;-76
2023/10/14 01:41:04;;;;;;;9.88;1.70;;;12.50;99.90;;;;;;5043665;28;20099;-76
2023/10/14 01:43:29;;;;;;;9.05;1.98;;;12.50;99.90;;;;;;5040048;28;20148;-75
2023/10/14 01:48:21;;;;;;;10.10;2.00;;;12.40;99.90;;;;;;5043600;28;20510;-75
2023/10/14 01:50:54;;;;;;;11.00;2.08;;;12.40;99.90;;;;;;5041198;28;20091;-75
2023/10/14 01:53:23;;;;;;;11.23;2.10;;;12.30;99.90;;;;;;5040161;28;20403;-76
2023/10/14 01:55:53;;;;;;;17.17;2.22;;;12.30;99.90;;;;;;5040926;28;20041;-75
2023/10/14 01:58:36;;;;;;;9.93;2.35;;;12.30;99.90;;;;;;5038638;28;20364;-75
2023/10/14 02:03:47;;;;;;;7.88;2.22;;;12.20;99.90;;;;;;5033121;28;20897;-76
2023/10/14 02:06:17;;;;;;;11.27;2.05;;;12.20;99.90;;;;;;5033563;28;20049;-76
2023/10/14 02:08:53;;;;;;;14.30;2.47;;;12.20;99.90;;;;;;5036491;28;20093;-76
2023/10/14 02:11:20;;;;;;;9.05;2.15;;;12.20;99.90;;;;;;5030860;28;20052;-76
2023/10/14 02:13:52;;;;;;;14.57;2.83;;;12.20;99.90;;;;;;5025281;28;20051;-77
2023/10/14 02:16:29;;;;;;;12.32;2.28;;;12.20;99.90;;;;;;5039903;28;20495;-77
2023/10/14 02:19:16;;;;;;;11.48;1.92;;;12.10;99.90;;;;;;5021128;28;20503;-76
2023/10/14 02:21:57;;;;;;;10.48;1.88;;;12.10;99.90;;;;;;5046361;28;20111;-76
2023/10/14 02:24:25;;;;;;;13.68;2.20;;;12.00;99.90;;;;;;5030525;28;20159;-77
2023/10/14 02:26:51;;;;;;;12.80;2.65;;;11.90;99.90;;;;;;5014725;28;20561;-77
2023/10/14 02:29:17;;;;;;;12.57;2.13;;;11.90;99.90;;;;;;5022912;28;20141;-76
2023/10/14 02:31:45;;;;;;;11.80;1.88;;;11.90;99.90;;;;;;5041930;28;20080;-77
2023/10/14 02:34:14;;;;;;;13.68;2.85;;;11.80;99.90;;;;;;5041148;28;20121;-76
2023/10/14 02:36:48;;;;;;;11.23;2.67;;;11.70;99.90;;;;;;5046336;28;20091;-76
2023/10/14 02:39:25;;;;;;;8.10;1.63;;;11.70;99.90;;;;;;5045455;28;20060;-76
2023/10/14 02:42:06;;;;;;;12.40;2.50;;;11.60;99.90;;;;;;5044593;28;20053;-77
2023/10/14 02:44:48;;;;;;;10.73;2.97;;;11.50;99.90;;;;;;5038579;28;20045;-76
2023/10/14 02:47:19;;;;;;;10.63;2.20;;;11.40;99.90;;;;;;5026671;28;20040;-77
2023/10/14 02:49:53;;;;;;;11.35;2.38;;;11.40;99.90;;;;;;5027935;28;20063;-76
2023/10/14 02:52:29;;;;;;;12.95;2.38;;;11.40;99.90;;;;;;5041428;28;20072;-76
2023/10/14 02:54:55;;;;;;;11.85;2.30;;;11.30;99.90;;;;;;5010822;28;20108;-76
2023/10/14 02:57:27;;;;;;;13.63;3.17;;;11.30;99.90;;;;;;5026364;28;20498;-76
2023/10/14 02:59:57;;;;;;;15.57;2.90;;;11.20;99.90;;;;;;5040852;28;20612;-76
2023/10/14 03:02:40;;;;;;;16.42;2.53;;;11.20;99.90;;;;;;5041353;28;20076;-77
2023/10/14 03:08:16;;;;;;;10.95;2.30;;;11.10;99.90;;;;;;5045952;28;20057;-76
2023/10/14 03:10:34;;;;;;;12.45;2.25;;;11.00;99.90;;;;;;5021824;28;20056;-76
2023/10/14 03:13:00;;;;;;;11.43;2.50;;;11.00;99.90;;;;;;5029937;28;20103;-76
2023/10/14 03:15:30;;;;;;;15.07;2.63;;;10.90;99.90;;;;;;5025870;28;20602;-76
2023/10/14 03:17:58;;;;;;;12.23;2.45;;;10.90;99.90;;;;;;5035606;28;20471;-76
2023/10/14 03:20:36;;;;;;;10.45;2.10;;;10.80;99.90;;;;;;5034291;28;20138;-76
2023/10/14 03:23:12;;;;;;;9.05;1.90;;;10.80;99.90;;;;;;5036035;28;20056;-76
2023/10/14 03:25:41;;;;;;;10.38;2.10;;;10.80;99.90;;;;;;5031876;28;20455;-76
2023/10/14 03:28:16;;;;;;;14.07;2.60;;;10.70;99.90;;;;;;5026964;28;20545;-77
2023/10/14 03:30:46;;;;;;;15.23;2.58;;;10.70;99.90;;;;;;5040745;28;20288;-76
2023/10/14 03:33:20;;;;;;;9.13;1.88;;;10.70;99.90;;;;;;5029198;28;20488;-76
2023/10/14 03:36:15;;;;;;;8.63;2.20;;;10.70;99.90;;;;;;5022123;28;20045;-77
2023/10/14 03:38:40;;;;;;;15.15;2.63;;;10.70;99.90;;;;;;5025510;28;20152;-76
2023/10/14 03:41:10;;;;;;;12.95;2.83;;;10.60;99.90;;;;;;5034118;28;20211;-77
2023/10/14 03:43:48;;;;;;;11.32;2.58;;;10.60;99.90;;;;;;5031311;28;20068;-76
2023/10/14 03:46:15;;;;;;;17.00;2.65;;;10.60;99.90;;;;;;5040570;28;20045;-76
2023/10/14 03:48:47;;;;;;;14.20;2.72;;;10.60;99.90;;;;;;5042428;28;20476;-77
2023/10/14 03:51:24;;;;;;;9.90;2.05;;;10.50;99.90;;;;;;5019361;28;20061;-76
2023/10/14 03:54:19;;;;;;;15.15;2.58;;;10.50;99.90;;;;;;5021049;28;20037;-77
2023/10/14 03:56:45;;;;;;;12.50;2.30;;;10.50;99.90;;;;;;5044249;28;20083;-77
2023/10/14 03:59:26;;;;;;;18.00;2.72;;;10.40;99.90;;;;;;5019603;28;20053;-77
2023/10/14 04:02:05;;;;;;;14.00;2.40;;;10.40;99.90;;;;;;5036916;28;20059;-76
2023/10/14 04:04:31;;;;;;;12.10;2.10;;;10.40;99.90;;;;;;5022223;28;20091;-76
2023/10/14 04:09:43;;;;;;;14.27;2.65;;;10.30;99.90;;;;;;5053512;28;20086;-77
2023/10/14 04:12:22;;;;;;;14.75;2.75;;;10.30;99.90;;;;;;5018439;28;20064;-76
2023/10/14 04:14:54;;;;;;;18.95;2.72;;;10.30;99.90;;;;;;5046497;28;20076;-76
2023/10/14 04:17:22;;;;;;;12.27;2.38;;;10.30;99.90;;;;;;5038852;28;20053;-76
2023/10/14 04:19:53;;;;;;;14.23;2.88;;;10.30;99.90;;;;;;5034143;28;20116;-76
2023/10/14 04:22:31;;;;;;;16.52;3.22;;;10.30;99.90;;;;;;5032660;28;20052;-76
2023/10/14 04:30:31;;;;;;;12.45;2.67;;;10.30;99.90;;;;;;5035094;28;20132;-76
2023/10/14 04:35:31;;;;;;;14.30;2.58;;;10.20;99.90;;;;;;5044902;28;20415;-76
2023/10/14 04:37:57;;;;;;;;;;;10.20;99.90;;;;;;5033023;28;20121;-77
2023/10/14 04:45:45;;;;;;;18.35;2.78;;;10.10;99.90;;;;;;5057578;28;20128;-76
2023/10/14 04:48:12;;;;;;;11.98;2.15;;;10.10;99.90;;;;;;5031985;28;20151;-76
2023/10/14 04:50:41;;;;;;;7.15;1.75;;;10.10;99.90;;;;;;5032326;28;20407;-77
2023/10/14 04:53:13;;;;;;;13.68;2.25;;;10.10;99.90;;;;;;5040640;28;20049;-77
2023/10/14 04:55:43;;;;;;;9.32;2.53;;;10.10;99.90;;;;;;5047417;28;20071;-77
2023/10/14 05:00:43;;;;;;;14.27;2.33;;;10.10;99.90;;;;;;5037324;28;20815;-76
2023/10/14 05:03:21;;;;;;;10.25;2.45;;;10.10;99.90;;;;;;5032239;28;20053;-76
2023/10/14 05:05:57;;;;;;;12.60;2.42;;;10.10;99.90;;;;;;5048945;28;20045;-76
2023/10/14 05:08:27;;;;;;;13.48;2.55;;;10.00;99.90;;;;;;5031499;28;20072;-77
2023/10/14 05:10:53;;;;;;;;;;;10.00;99.90;;;;;;5034732;28;20508;-76
2023/10/14 05:13:32;;;;;;;16.63;2.28;;;10.00;99.90;;;;;;5033289;28;19964;-76
2023/10/14 05:16:53;;;;;;;12.98;2.40;;;9.90;99.90;;;;;;5022342;28;20075;-76
2023/10/14 05:19:11;;;;;;;11.75;2.28;;;10.00;99.90;;;;;;5024851;28;20045;-76
2023/10/14 05:21:43;;;;;;;13.38;2.42;;;9.90;99.90;;;;;;5017437;28;20492;-76
2023/10/14 05:24:10;;;;;;;10.60;2.08;;;9.90;99.90;;;;;;5021518;28;20052;-76
2023/10/14 05:26:46;;;;;;;10.43;1.83;;;9.90;99.90;;;;;;5036374;28;20045;-76
2023/10/14 05:29:19;;;;;;;10.77;2.40;;;9.90;99.90;;;;;;5036835;28;20060;-76
2023/10/14 05:31:46;;;;;;;15.57;2.97;;;9.90;99.90;;;;;;5032295;28;20046;-75
2023/10/14 05:34:13;;;;;;;10.95;2.40;;;9.80;99.90;;;;;;5028297;28;20577;-76
2023/10/14 05:36:39;;;;;;;11.52;2.53;;;9.80;99.90;;;;;;5043169;28;20049;-76
2023/10/14 05:39:10;;;;;;;11.85;2.45;;;9.80;99.90;;;;;;5038427;28;20049;-76
2023/10/14 05:41:39;;;;;;;15.98;2.83;;;9.80;99.90;;;;;;5033234;28;20503;-76
2023/10/14 05:44:10;;;;;;;10.27;2.35;;;9.80;99.90;;;;;;5036433;28;20056;-76
2023/10/14 05:46:36;;;;;;;19.30;3.10;;;9.80;99.90;;;;;;5034821;28;20526;-76
2023/10/14 05:49:04;;;;;;;12.93;2.42;;;9.70;99.90;;;;;;5029031;28;20037;-76
2023/10/14 05:51:30;;;;;;;19.55;2.72;;;9.70;99.90;;;;;;5038174;28;20072;-76
2023/10/14 05:53:57;;;;;;;18.55;3.17;;;9.60;99.90;;;;;;5054832;28;20088;-76
2023/10/14 05:56:22;;;;;;;14.50;2.85;;;9.60;99.90;;;;;;5052249;28;20055;-76
2023/10/14 05:58:52;;;;;;;15.60;2.45;;;9.60;99.90;;;;;;5036404;28;20037;-76
2023/10/14 06:01:19;;;;;;;17.77;2.87;;;9.60;99.90;;;;;;5024510;28;20083;-77
2023/10/14 06:03:45;;;;;;;17.15;3.08;;;9.60;99.90;;;;;;5032965;28;20292;-76
2023/10/14 06:06:14;;;;;;;14.57;2.85;;;9.60;99.90;;;;;;5041405;28;20124;-76
2023/10/14 06:08:41;;;;;;;19.77;3.50;;;9.60;99.90;;;;;;5039195;28;20061;-75
2023/10/14 06:11:07;;;;;;;15.65;2.67;;;9.60;99.90;;;;;;5026566;28;20049;-76
2023/10/14 06:13:34;;;;;;;16.48;3.20;;;9.60;99.90;;;;;;5040085;28;20041;-76
2023/10/14 06:16:04;;;;;;;16.40;3.00;;;9.60;99.90;;;;;;5040331;28;20363;-76
2023/10/14 06:18:31;;;;;;;17.17;2.90;;;9.60;99.90;;;;;;5030803;28;20029;-76
2023/10/14 06:20:57;;;;;;;11.00;2.58;;;9.60;99.90;;;;;;5020875;28;20049;-76
2023/10/14 06:23:26;;;;;;;13.80;2.50;;;9.60;99.90;;;;;;5038742;28;20057;-76
2023/10/14 06:25:56;;;;;;;16.60;3.08;;;9.60;99.90;;;;;;5026842;28;20094;-76
2023/10/14 06:28:22;;;;;;;16.75;3.42;;;9.60;99.90;;;;;;5037056;28;20433;-76
2023/10/14 06:30:48;;;;;;;11.55;2.47;;;9.60;99.90;;;;;;5031187;28;20052;-76
2023/10/14 06:33:14;;;;;;;14.90;3.17;;;9.60;99.90;;;;;;5040322;28;20106;-76
2023/10/14 06:35:43;;;;;;;17.02;2.75;;;9.70;99.90;;;;;;5021181;28;20053;-76
2023/10/14 06:38:17;;;;;;;19.33;2.83;;;9.70;99.90;;;;;;5042796;28;20094;-75
2023/10/14 06:40:44;;;;;;;16.55;3.50;;;9.60;99.90;;;;;;5031488;28;20151;-76
2023/10/14 06:43:10;;;;;;;16.45;2.63;;;9.70;99.90;;;;;;5045198;28;20084;-76
2023/10/14 06:45:37;;;;;;;16.85;2.67;;;9.70;99.90;;;;;;5028511;28;20464;-76
2023/10/14 06:48:09;;;;;;;16.70;3.50;;;9.60;99.90;;;;;;5039120;28;20632;-76
2023/10/14 06:50:42;;;;;;;14.35;2.90;;;9.70;99.90;;;;;;5038916;28;20052;-76
2023/10/14 06:53:08;;;;;;;18.00;3.17;;;9.70;99.90;;;;;;5051856;28;20052;-76
2023/10/14 06:55:40;;;;;;;13.50;2.85;;;9.70;99.90;;;;;;5036704;28;20029;-76
2023/10/14 06:58:08;;;;;;;13.13;3.03;;;9.70;99.90;;;;;;5043102;28;20091;-76
2023/10/14 07:00:37;;;;;;;14.63;2.70;;;9.70;99.90;;;;;;5026645;28;20044;-76
2023/10/14 07:03:10;;;;;;;15.02;2.80;;;9.70;99.90;;;;;;5045003;28;20048;-76
2023/10/14 07:05:43;;;;;;;15.57;3.08;;;9.70;99.90;;;;;;5042454;28;20045;-76
2023/10/14 07:08:12;;;;;;;11.07;2.60;;;9.70;99.90;;;;;;5036342;28;20045;-76
2023/10/14 07:10:39;;;;;;;12.30;3.20;;;9.70;99.90;;;;;;5041944;28;20041;-76
2023/10/14 07:13:05;;;;;;;16.95;3.00;;;9.80;99.90;;;;;;5020529;28;20053;-76
2023/10/14 07:15:36;;;;;;;20.85;3.17;;;9.80;99.90;;;;;;5023309;28;20090;-76
2023/10/14 07:18:01;;;;;;;13.52;2.60;;;9.80;99.90;;;;;;5022791;28;20048;-76
2023/10/14 07:20:31;;;;;;;15.30;2.80;;;9.90;99.90;;;;;;5054171;28;20041;-76
2023/10/14 07:23:07;;;;;;;15.53;3.10;;;9.90;99.90;;;;;;5041404;28;20041;-76
2023/10/14 07:25:42;;;;;;;14.93;2.78;;;9.90;99.90;;;;;;5038841;28;20049;-76
2023/10/14 07:28:14;;;;;;;21.48;3.55;;;9.90;99.90;;;;;;5021983;28;20700;-76
2023/10/14 07:30:48;;;;;;;14.13;3.05;;;10.00;99.90;;;;;;5018959;28;20059;-76
2023/10/14 07:33:16;;;;;;;16.38;3.10;;;10.00;99.90;;;;;;5037461;28;20525;-76
2023/10/14 07:35:42;;;;;;;18.67;3.22;;;10.10;99.90;;;;;;5021073;28;20040;-76
2023/10/14 07:38:09;;;;;;;17.88;2.95;;;10.20;99.90;;;;;;5041697;28;20127;-76
2023/10/14 07:40:36;;;;;;;11.63;2.85;;;10.10;99.90;;;;;;5015758;28;20515;-76
2023/10/14 07:43:07;;;;;;;17.92;2.92;;;10.20;99.90;;;;;;5024453;28;20052;-76
2023/10/14 07:45:37;;;;;;;13.05;2.60;;;10.20;99.90;;;;;;5023336;28;20051;-76
2023/10/14 07:48:10;;;;;;;16.23;3.17;;;10.30;99.90;;;;;;5041636;28;20037;-76
2023/10/14 07:50:44;;;;;;;11.27;2.63;;;10.30;99.90;;;;;;5021140;28;20476;-76
2023/10/14 07:53:13;;;;;;;14.70;3.53;;;10.50;99.90;;;;;;5024549;28;20162;-75
2023/10/14 07:55:39;;;;;;;15.32;3.25;;;10.60;99.90;;;;;;5023231;28;20404;-76
2023/10/14 07:58:08;;;;;;;16.67;2.63;;;10.70;99.90;;;;;;5034058;28;20053;-76
2023/10/14 08:00:48;;;;;;;17.90;3.83;;;10.90;99.90;;;;;;5034015;28;21130;-76
2023/10/14 08:03:20;;;;;;;13.55;3.03;;;11.10;99.90;;;;;;5055035;28;20045;-75
2023/10/14 08:05:51;;;;;;;17.98;3.17;;;11.30;99.90;;;;;;5044169;28;20063;-75
2023/10/14 08:08:19;;;;;;;12.50;2.70;;;11.50;99.90;;;;;;5042052;28;20053;-75
2023/10/14 08:10:50;;;;;;;12.63;3.05;;;11.70;99.90;;;;;;5023959;28;20057;-75
2023/10/14 08:13:23;;;;;;;18.55;3.05;;;11.80;99.90;;;;;;5024424;28;20053;-75
2023/10/14 08:15:50;;;;;;;15.48;3.05;;;12.00;99.90;;;;;;5045161;28;20045;-76
2023/10/14 08:18:17;;;;;;;13.85;3.05;;;12.20;99.90;;;;;;5039972;28;20479;-75
2023/10/14 08:20:43;;;;;;;11.50;2.85;;;12.30;99.90;;;;;;5037533;28;20080;-76
2023/10/14 08:23:10;;;;;;;11.00;2.33;;;12.40;99.90;;;;;;5058435;28;20045;-75
2023/10/14 08:25:42;;;;;;;12.50;3.10;;;12.50;99.90;;;;;;5060050;28;20041;-75
2023/10/14 08:28:11;;;;;;;11.70;2.45;;;12.70;99.90;;;;;;5026808;28;20088;-76
2023/10/14 08:30:46;;;;;;;11.88;2.70;;;12.70;99.90;;;;;;5038091;28;20037;-76
2023/10/14 08:33:13;;;;;;;11.25;2.60;;;12.90;99.90;;;;;;5045593;28;20048;-76
2023/10/14 08:35:42;;;;;;;13.05;2.90;;;13.00;99.90;;;;;;5039630;28;20077;-75
2023/10/14 08:38:19;;;;;;;11.00;2.30;;;13.00;99.90;;;;;;5044668;28;20350;-75
2023/10/14 08:40:49;;;;;;;17.85;2.92;;;13.00;99.90;;;;;;5059389;28;20103;-75
2023/10/14 08:43:30;;;;;;;12.85;2.88;;;13.10;99.90;;;;;;5039473;28;20365;-75
2023/10/14 08:45:59;;;;;;;14.45;2.58;;;13.10;99.90;;;;;;5028498;28;20098;-75
2023/10/14 08:48:27;;;;;;;13.55;2.83;;;13.10;99.90;;;;;;5042325;28;20139;-75
2023/10/14 08:50:57;;;;;;;11.20;2.63;;;13.10;99.90;;;;;;5042868;28;20049;-75
2023/10/14 08:53:24;;;;;;;10.30;2.20;;;13.00;99.90;;;;;;5043581;28;20071;-75
2023/10/14 08:55:53;;;;;;;12.55;3.00;;;13.10;99.90;;;;;;5044083;28;20047;-75
2023/10/14 08:58:22;;;;;;;11.98;3.05;;;13.10;99.90;;;;;;5041169;28;20381;-75
2023/10/14 09:00:50;;;;;;;16.60;3.03;;;13.10;99.90;;;;;;5022793;28;20660;-75
2023/10/14 09:03:16;;;;;;;16.45;3.67;;;13.20;99.90;;;;;;5042049;28;20037;-75
2023/10/14 09:05:44;;;;;;;13.52;3.10;;;13.30;99.90;;;;;;5041130;28;20052;-75
2023/10/14 09:08:12;;;;;;;13.20;3.25;;;13.30;99.90;;;;;;5038909;28;20499;-75
2023/10/14 09:10:40;;;;;;;15.93;2.53;;;13.30;99.90;;;;;;5028043;28;20053;-75
2023/10/14 09:13:19;;;;;;;13.48;2.95;;;13.30;99.90;;;;;;5038682;28;20472;-75
2023/10/14 09:15:46;;;;;;;16.25;2.97;;;13.30;99.90;;;;;;5040983;28;20585;-75
2023/10/14 09:18:30;;;;;;;11.80;2.85;;;13.40;99.90;;;;;;5037422;28;20045;-74
2023/10/14 09:21:00;;;;;;;12.30;2.20;;;13.40;99.90;;;;;;5038748;28;20052;-74
2023/10/14 09:23:39;;;;;;;15.73;2.70;;;13.40;99.90;;;;;;5041215;28;20490;-74
2023/10/14 09:26:06;;;;;;;13.65;3.20;;;13.40;99.90;;;;;;5037863;28;20543;-74
2023/10/14 09:28:40;;;;;;;11.25;2.80;;;13.30;99.90;;;;;;5027877;28;20134;-73
2023/10/14 09:31:08;;;;;;;12.95;2.67;;;13.30;99.90;;;;;;5036158;28;20051;-74
2023/10/14 09:33:42;;;;;;;8.95;2.20;;;13.30;99.90;;;;;;5036415;28;20045;-73
2023/10/14 09:36:14;;;;;;;11.23;2.47;;;13.30;99.90;;;;;;5037863;28;20131;-74
2023/10/14 09:38:43;;;;;;;9.73;2.38;;;13.20;99.90;;;;;;5022122;28;20056;-74
2023/10/14 09:41:10;;;;;;;9.57;2.05;;;13.10;99.90;;;;;;5039269;28;20041;-73
2023/10/14 09:43:46;;;;;;;9.75;1.95;;;13.20;99.90;;;;;;5042871;28;20547;-74
2023/10/14 09:46:15;;;;;;;10.52;1.90;;;13.20;99.90;;;;;;5041723;28;20041;-75
2023/10/14 09:48:43;;;;;;;11.07;2.00;;;13.20;99.90;;;;;;5041710;28;20523;-74
2023/10/14 09:51:12;;;;;;;10.05;1.95;;;13.20;99.90;;;;;;5040363;28;20041;-73
2023/10/14 09:53:38;;;;;;;9.32;2.00;;;13.20;99.90;;;;;;5038353;28;20057;-74
2023/10/14 09:56:09;;;;;;;12.75;1.92;;;13.30;99.90;;;;;;5040840;28;20063;-73
2023/10/14 09:58:43;;;;;;;9.90;2.13;;;13.40;99.90;;;;;;5040857;28;20033;-74
2023/10/14 10:01:16;;;;;;;10.10;2.45;;;13.40;99.90;;;;;;5025885;28;20116;-74
2023/10/14 10:03:51;;;;;;;8.80;2.13;;;13.50;99.90;;;;;;5040930;28;20531;-74
2023/10/14 10:06:49;;;;;;;10.55;1.83;;;13.60;99.90;;;;;;5057421;28;20495;-74
2023/10/14 10:09:21;;;;;;;13.82;2.25;;;13.70;99.90;;;;;;5031705;28;20399;-74
2023/10/14 10:11:52;;;;;;;12.93;2.30;;;13.60;99.90;;;;;;5029812;28;20092;-73
2023/10/14 10:14:20;;;;;;;10.13;2.20;;;13.60;99.90;;;;;;5016851;28;20543;-74
2023/10/14 10:16:56;;;;;;;8.32;1.83;;;13.50;99.90;;;;;;5019373;28;20099;-73
2023/10/14 10:19:22;;;;;;;10.88;2.80;;;13.50;99.90;;;;;;5026282;28;20575;-73
2023/10/14 10:22:14;;;;;;;9.52;2.10;;;13.50;99.90;;;;;;5040676;28;20073;-74
2023/10/14 10:24:46;;;;;;;9.35;2.13;;;13.60;99.90;;;;;;5029714;28;20056;-73
2023/10/14 10:27:14;;;;;;;10.35;2.05;;;13.70;99.90;;;;;;5024934;28;20503;-73
2023/10/14 10:29:51;;;;;;;10.55;2.33;;;13.90;99.90;;;;;;5023083;28;20053;-73
2023/10/14 10:32:23;;;;;;;10.35;1.95;;;14.10;99.90;;;;;;5036734;28;20048;-73
2023/10/14 10:35:07;;;;;;;10.13;2.22;;;14.10;99.90;;;;;;5034017;28;20053;-73
2023/10/14 10:37:56;;;;;;;10.30;2.33;;;14.10;99.90;;;;;;5038028;28;20136;-73
2023/10/14 10:40:27;;;;;;;9.65;2.42;;;14.00;99.90;;;;;;5039269;28;20045;-73
2023/10/14 10:43:06;;;;;;;9.13;2.03;;;14.00;99.90;;;;;;5017851;28;20050;-73
2023/10/14 10:45:42;;;;;;;8.45;1.75;;;14.00;99.90;;;;;;5029780;28;20045;-74
2023/10/14 10:48:14;;;;;;;7.80;1.70;;;13.90;99.90;;;;;;5028993;28;20037;-73
2023/10/14 10:50:41;;;;;;;8.05;1.40;;;13.70;99.90;;;;;;5019267;28;20064;-75
2023/10/14 10:53:07;;;;;;;6.97;1.58;;;13.40;99.90;;;;;;5039582;28;20111;-73
2023/10/14 10:55:41;;;;;;;7.13;1.27;;;13.10;99.90;;;;;;5053848;28;20203;-73
2023/10/14 10:58:11;;;;;;;7.30;1.52;;;12.90;99.90;;;;;;5024244;28;20044;-74
2023/10/14 11:00:38;;;;;;;8.15;1.33;;;12.80;99.90;;;;;;5035152;28;20045;-74
2023/10/14 11:03:13;;;;;;;7.10;1.50;;;12.60;99.90;;;;;;5039678;28;20514;-74
2023/10/14 11:05:41;;;;;;;7.57;1.67;;;12.50;99.90;;;;;;5025506;28;20434;-73
2023/10/14 11:08:07;;;;;;;7.18;1.55;;;12.50;99.90;;;;;;5040262;28;20545;-73
2023/10/14 11:10:38;;;;;;;7.13;1.75;;;12.50;99.90;;;;;;5042613;28;20144;-73
2023/10/14 11:13:06;;;;;;;6.90;1.60;;;12.50;99.90;;;;;;5040850;28;20049;-73
2023/10/14 11:15:33;;;;;;;7.30;1.40;;;12.60;99.90;;;;;;5024017;28;20545;-74
2023/10/14 11:18:00;;;;;;;8.45;1.88;;;12.70;99.90;;;;;;5021509;28;20923;-75
2023/10/14 11:20:33;;;;;;;8.63;1.73;;;12.80;99.90;;;;;;5023845;28;20045;-74
2023/10/14 11:23:00;;;;;;;11.32;2.38;;;12.90;99.90;;;;;;5023034;28;20810;-74
2023/10/14 11:25:30;;;;;;;9.68;1.65;;;13.00;99.90;;;;;;5042497;28;20041;-74
2023/10/14 11:27:57;;;;;;;7.95;1.58;;;13.20;99.90;;;;;;5054810;28;20566;-74
2023/10/14 11:30:28;;;;;;;8.93;2.00;;;13.40;99.90;;;;;;5043034;28;20519;-75
2023/10/14 11:33:02;;;;;;;7.82;1.20;;;13.50;99.90;;;;;;5021935;28;20083;-75
2023/10/14 11:35:30;;;;;;;9.80;1.30;;;13.60;99.90;;;;;;5039050;28;20526;-74
2023/10/14 11:38:02;;;;;;;4.95;1.10;;;13.40;99.90;;;;;;5036056;28;20059;-75
2023/10/14 11:40:40;;;;;;;6.95;1.70;;;13.20;99.90;;;;;;5034573;28;20076;-75
2023/10/14 11:43:07;;;;;;;8.68;1.70;;;13.20;99.90;;;;;;5040455;28;20142;-75
2023/10/14 11:45:33;;;;;;;8.50;1.55;;;13.10;99.90;;;;;;5056805;28;20041;-74
2023/10/14 11:48:05;;;;;;;9.48;1.60;;;13.10;99.90;;;;;;5025339;28;20842;-74
2023/10/14 11:50:33;;;;;;;7.38;1.98;;;13.00;99.90;;;;;;5037844;28;20124;-75
2023/10/14 11:53:02;;;;;;;9.38;1.90;;;12.90;99.90;;;;;;5041787;28;20198;-75
2023/10/14 11:55:28;;;;;;;7.28;1.35;;;13.00;99.90;;;;;;5054370;28;20547;-75
2023/10/14 11:57:54;;;;;;;5.63;1.08;;;13.00;99.90;;;;;;5026952;28;20191;-75
2023/10/14 12:00:21;;;;;;;6.97;1.40;;;13.10;99.90;;;;;;5018768;28;20132;-75
2023/10/14 12:02:48;;;;;;;6.55;1.40;;;13.00;99.90;;;;;;5015928;28;20511;-75
2023/10/14 12:05:16;;;;;;;7.13;1.38;;;13.00;99.90;;;;;;5039860;28;20048;-75
2023/10/14 12:07:43;;;;;;;8.57;1.80;;;13.10;99.90;;;;;;5039275;28;20045;-74
2023/10/14 12:10:10;;;;;;;7.60;1.60;;;13.00;99.90;;;;;;5036049;28;20159;-75
2023/10/14 12:12:39;;;;;;;5.95;1.40;;;13.00;99.90;;;;;;5042711;28;20091;-75
2023/10/14 12:15:09;;;;;;;9.07;1.83;;;12.90;99.90;;;;;;5043359;28;20120;-75
2023/10/14 12:17:35;;;;;;;;;;;13.00;99.90;;;;;;5037931;28;20068;-75
2023/10/14 12:20:10;;;;;;;12.68;1.98;;;13.00;99.90;;;;;;5049740;28;19921;-75
2023/10/14 12:22:40;;;;;;;7.97;2.33;;;13.10;99.90;;;;;;5037801;28;20052;-74
2023/10/14 12:25:06;;;;;;;5.78;1.40;;;13.20;99.90;;;;;;5023673;28;20449;-74
2023/10/14 12:27:35;;;;;;;9.95;2.17;;;13.20;99.90;;;;;;5037109;28;20038;-73
2023/10/14 12:30:01;;;;;;;9.65;2.00;;;13.30;99.90;;;;;;5037833;28;20083;-73
2023/10/14 12:32:32;;;;;;;13.20;3.10;;;13.30;99.90;;;;;;5013226;28;20049;-74
2023/10/14 12:35:07;;;;;;;9.05;2.10;;;13.30;99.90;;;;;;5025687;28;20047;-73
2023/10/14 12:37:33;;;;;;;9.93;2.17;;;13.30;99.90;;;;;;5029059;28;20045;-74
2023/10/14 12:40:05;;;;;;;11.75;2.55;;;13.30;99.90;;;;;;5019527;28;20080;-73
2023/10/14 12:42:47;;;;;;;8.52;2.05;;;13.30;99.90;;;;;;5021040;28;20069;-74
2023/10/14 12:45:23;;;;;;;12.02;2.72;;;13.20;99.90;;;;;;5055654;28;20136;-73
2023/10/14 12:47:49;;;;;;;11.50;2.47;;;13.20;99.90;;;;;;5059028;28;20049;-74
2023/10/14 12:50:19;;;;;;;11.23;3.20;;;13.10;99.90;;;;;;5036873;28;20041;-74
2023/10/14 12:53:00;;;;;;;;;;;13.10;99.90;;;;;;5044504;28;20051;-74
2023/10/14 12:55:26;;;;;;;14.43;2.72;;;13.00;99.90;;;;;;5024337;28;19928;-73
2023/10/14 12:57:54;;;;;;;10.43;2.75;;;13.10;99.90;;;;;;5042307;28;20047;-73
2023/10/14 13:00:29;;;;;;;10.60;2.60;;;13.10;99.90;;;;;;5040903;28;20167;-73
2023/10/14 13:03:01;;;;;;;12.40;2.65;;;13.10;99.90;;;;;;5040308;28;20057;-73
2023/10/14 13:05:28;;;;;;;10.00;2.75;;;13.10;99.90;;;;;;5027609;28;20037;-74
2023/10/14 13:07:55;;;;;;;10.18;3.10;;;13.10;99.90;;;;;;5024500;28;20045;-73
2023/10/14 13:10:25;;;;;;;12.77;2.70;;;13.10;99.90;;;;;;5029240;28;20045;-73
2023/10/14 13:12:53;;;;;;;15.13;2.83;;;13.10;99.90;;;;;;5041109;28;20492;-74
2023/10/14 13:15:30;;;;;;;13.15;2.70;;;13.10;99.90;;;;;;5025662;28;20100;-74
2023/10/14 13:17:59;;;;;;;9.35;2.42;;;13.20;99.90;;;;;;5058786;28;20063;-74
2023/10/14 13:20:30;;;;;;;15.25;3.25;;;13.10;99.90;;;;;;5037288;28;20808;-73
2023/10/14 13:22:58;;;;;;;12.40;2.58;;;13.00;99.90;;;;;;5026604;28;20131;-73
2023/10/14 13:25:25;;;;;;;13.50;2.80;;;12.90;99.90;;;;;;5040299;28;20049;-73
2023/10/14 13:27:52;;;;;;;11.48;2.38;;;12.80;99.90;;;;;;5040310;28;20052;-73
2023/10/14 13:30:22;;;;;;;10.80;2.40;;;12.70;99.90;;;;;;5025607;28;20028;-74
2023/10/14 13:32:55;;;;;;;13.80;3.03;;;12.70;99.90;;;;;;5039936;28;20051;-74
2023/10/14 13:35:21;;;;;;;11.18;2.75;;;12.70;99.90;;;;;;5037724;28;20041;-72
2023/10/14 13:37:48;;;;;;;13.52;3.35;;;12.70;99.90;;;;;;5060784;28;20056;-72
2023/10/14 13:40:20;;;;;;;14.32;2.95;;;12.80;99.90;;;;;;5031799;28;20041;-72